createdAt,value
2023-04-01T00:00:03.222Z,7.62
2023-04-01T00:02:33.788Z,7.58
2023-04-01T00:05:02.637Z,7.53
2023-04-01T00:07:30.640Z,7.49
2023-04-01T00:09:58.608Z,7.46
2023-04-01T00:12:26.345Z,7.43
2023-04-01T00:14:54.045Z,7.41
2023-04-01T00:17:22.656Z,7.39
2023-04-01T00:19:50.360Z,7.38
2023-04-01T00:22:17.984Z,7.40
2023-04-01T00:24:45.569Z,7.42
2023-04-01T00:27:13.148Z,7.46
2023-04-01T00:29:41.235Z,7.47
2023-04-01T00:32:08.780Z,7.49
2023-04-01T00:34:36.425Z,7.52
2023-04-01T00:37:04.200Z,7.55
2023-04-01T00:39:32.345Z,7.57
2023-04-01T00:41:59.932Z,7.57
2023-04-01T00:44:27.602Z,7.57
2023-04-01T00:46:55.354Z,7.56
2023-04-01T00:49:22.930Z,7.55
2023-04-01T00:51:51.140Z,7.55
2023-04-01T00:54:18.788Z,7.56
2023-04-01T00:56:48.959Z,7.56
2023-04-01T00:59:16.655Z,7.55
2023-04-01T01:01:44.621Z,7.51
2023-04-01T01:04:12.149Z,7.47
2023-04-01T01:06:41.874Z,7.45
2023-04-01T01:09:09.513Z,7.44
2023-04-01T01:11:42.764Z,7.44
2023-04-01T01:14:15.068Z,7.46
2023-04-01T01:16:42.768Z,7.48
2023-04-01T01:19:10.634Z,7.50
2023-04-01T01:21:38.708Z,7.51
2023-04-01T01:24:06.233Z,7.51
2023-04-01T01:26:33.810Z,7.54
2023-04-01T01:29:01.600Z,7.54
2023-04-01T01:31:42.435Z,7.54
2023-04-01T01:34:09.994Z,7.53
2023-04-01T01:36:40.040Z,7.50
2023-04-01T01:39:07.743Z,7.46
2023-04-01T01:41:35.358Z,7.42
2023-04-01T01:44:02.866Z,7.38
2023-04-01T01:46:30.654Z,7.37
2023-04-01T01:48:58.314Z,7.37
2023-04-01T01:51:25.872Z,7.40
2023-04-01T01:53:53.609Z,7.42
2023-04-01T01:56:22.892Z,7.42
2023-04-01T01:58:50.415Z,7.45
2023-04-01T02:01:18.032Z,7.43
2023-04-01T02:03:47.002Z,7.40
2023-04-01T02:06:14.504Z,7.38
2023-04-01T02:08:42.434Z,7.36
2023-04-01T02:11:10.871Z,7.35
2023-04-01T02:13:40.835Z,7.35
2023-04-01T02:16:11.174Z,7.37
2023-04-01T02:18:39.238Z,7.36
2023-04-01T02:21:07.008Z,7.36
2023-04-01T02:23:34.673Z,7.37
2023-04-01T02:26:02.296Z,7.36
2023-04-01T02:28:29.829Z,7.36
2023-04-01T02:30:59.138Z,7.38
2023-04-01T02:33:27.112Z,7.38
2023-04-01T02:35:56.368Z,7.39
2023-04-01T02:38:24.390Z,7.40
2023-04-01T02:40:51.998Z,7.38
2023-04-01T02:43:20.918Z,7.38
2023-04-01T02:49:45.106Z,7.33
2023-04-01T02:52:12.614Z,7.31
2023-04-01T02:54:40.505Z,7.30
2023-04-01T02:57:08.068Z,7.29
2023-04-01T02:59:35.624Z,7.29
2023-04-01T03:02:03.196Z,7.28
2023-04-01T03:04:30.886Z,7.28
2023-04-01T03:06:58.401Z,7.25
2023-04-01T03:09:26.056Z,7.24
2023-04-01T03:11:53.566Z,7.21
2023-04-01T03:14:21.191Z,7.20
2023-04-01T03:16:48.708Z,7.19
2023-04-01T03:19:16.449Z,7.17
2023-04-01T03:21:44.009Z,7.17
2023-04-01T03:24:11.636Z,7.15
2023-04-01T03:26:39.229Z,7.14
2023-04-01T03:29:06.926Z,7.14
2023-04-01T03:31:35.642Z,7.16
2023-04-01T03:34:03.349Z,7.16
2023-04-01T03:36:30.870Z,7.17
2023-04-01T03:38:58.417Z,7.20
2023-04-01T03:41:26.520Z,7.18
2023-04-01T03:43:54.020Z,7.20
2023-04-01T03:46:21.747Z,7.19
2023-04-01T03:48:49.443Z,7.19
2023-04-01T03:51:17.120Z,7.21
2023-04-01T03:53:44.750Z,7.22
2023-04-01T03:56:12.415Z,7.25
2023-04-01T03:58:40.086Z,7.25
2023-04-01T04:01:07.693Z,7.27
2023-04-01T04:03:35.414Z,7.27
2023-04-01T04:06:03.047Z,7.26
2023-04-01T04:08:30.705Z,7.26
2023-04-01T04:10:58.287Z,7.28
2023-04-01T04:13:25.837Z,7.28
2023-04-01T04:15:53.391Z,7.27
2023-04-01T04:18:20.950Z,7.26
2023-04-01T04:20:51.191Z,7.26
2023-04-01T04:23:18.695Z,7.26
2023-04-01T04:25:46.418Z,7.26
2023-04-01T04:28:13.893Z,7.26
2023-04-01T04:30:41.361Z,7.26
2023-04-01T04:33:09.070Z,7.28
2023-04-01T04:35:36.604Z,7.29
2023-04-01T04:38:04.084Z,7.30
2023-04-01T04:40:31.770Z,7.31
2023-04-01T04:42:59.305Z,7.32
2023-04-01T04:45:26.789Z,7.32
2023-04-01T04:47:54.478Z,7.33
2023-04-01T04:50:22.168Z,7.35
2023-04-01T04:52:49.938Z,7.36
2023-04-01T04:55:17.443Z,7.36
2023-04-01T04:57:44.995Z,7.35
2023-04-01T05:00:12.589Z,7.37
2023-04-01T05:02:40.284Z,7.36
2023-04-01T05:05:08.047Z,7.38
2023-04-01T05:07:35.568Z,7.39
2023-04-01T05:10:03.132Z,7.42
2023-04-01T05:12:30.845Z,7.41
2023-04-01T05:14:58.478Z,7.45
2023-04-01T05:17:26.253Z,7.47
2023-04-01T05:19:53.811Z,7.48
2023-04-01T05:22:21.301Z,7.47
2023-04-01T05:24:48.809Z,7.42
2023-04-01T05:27:16.334Z,7.37
2023-04-01T05:29:43.817Z,7.35
2023-04-01T05:32:11.492Z,7.37
2023-04-01T05:34:38.989Z,7.40
2023-04-01T05:37:08.409Z,7.43
2023-04-01T05:39:36.209Z,7.49
2023-04-01T05:42:03.684Z,7.55
2023-04-01T05:44:31.150Z,7.57
2023-04-01T05:46:58.760Z,7.59
2023-04-01T05:49:27.697Z,7.62
2023-04-01T05:51:56.504Z,7.68
2023-04-01T05:54:24.315Z,7.70
2023-04-01T05:56:51.788Z,7.72
2023-04-01T05:59:19.343Z,7.74
2023-04-01T06:01:46.872Z,7.77
2023-04-01T06:04:14.363Z,7.81
2023-04-01T06:06:41.943Z,7.84
2023-04-01T06:09:09.507Z,7.89
2023-04-01T06:11:37.173Z,7.94
2023-04-01T06:14:06.560Z,7.98
2023-04-01T06:16:34.169Z,8.05
2023-04-01T06:19:01.768Z,8.09
2023-04-01T06:21:29.285Z,8.13
2023-04-01T06:23:56.973Z,8.13
2023-04-01T06:26:24.534Z,8.18
2023-04-01T06:28:52.211Z,8.22
2023-04-01T06:31:19.839Z,8.26
2023-04-01T06:33:47.580Z,8.30
2023-04-01T06:36:15.113Z,8.33
2023-04-01T06:38:42.681Z,8.35
2023-04-01T06:41:10.807Z,8.37
2023-04-01T06:43:38.360Z,8.40
2023-04-01T06:46:05.912Z,8.45
2023-04-01T06:48:33.518Z,8.53
2023-04-01T06:51:01.235Z,8.61
2023-04-01T06:53:28.781Z,8.70
2023-04-01T06:55:56.381Z,8.81
2023-04-01T06:58:24.007Z,9.09
2023-04-01T07:00:52.038Z,9.29
2023-04-01T07:03:19.684Z,9.34
2023-04-01T07:05:47.333Z,9.36
2023-04-01T07:08:14.886Z,9.36
2023-04-01T07:10:43.929Z,9.34
2023-04-01T07:13:11.479Z,9.31
2023-04-01T07:15:39.122Z,9.28
2023-04-01T07:18:06.635Z,9.41
2023-04-01T07:20:34.222Z,9.52
2023-04-01T07:23:01.909Z,9.42
2023-04-01T07:25:29.448Z,9.34
2023-04-01T07:27:57.090Z,9.30
2023-04-01T07:30:24.747Z,9.28
2023-04-01T07:32:52.413Z,9.32
2023-04-01T07:35:20.025Z,9.38
2023-04-01T07:37:47.617Z,9.39
2023-04-01T07:40:15.168Z,9.38
2023-04-01T07:42:42.662Z,9.31
2023-04-01T07:45:10.410Z,9.27
2023-04-01T07:47:37.917Z,9.20
2023-04-01T07:50:05.511Z,9.16
2023-04-01T07:52:33.097Z,9.22
2023-04-01T07:55:00.737Z,9.32
2023-04-01T07:57:28.416Z,9.38
2023-04-01T07:59:56.230Z,9.30
2023-04-01T08:02:23.860Z,9.16
2023-04-01T08:04:51.542Z,9.05
2023-04-01T08:07:19.260Z,8.95
2023-04-01T08:09:46.824Z,8.87
2023-04-01T08:12:14.329Z,8.84
2023-04-01T08:14:41.877Z,8.89
2023-04-01T08:17:09.701Z,8.93
2023-04-01T08:19:37.235Z,8.96
2023-04-01T08:22:05.686Z,9.05
2023-04-01T08:24:44.338Z,9.20
2023-04-01T08:27:14.420Z,9.38
2023-04-01T08:29:41.905Z,9.51
2023-04-01T08:32:09.727Z,9.64
2023-04-01T08:34:37.360Z,9.81
2023-04-01T08:37:04.868Z,9.83
2023-04-01T08:39:32.448Z,9.87
2023-04-01T08:41:59.942Z,9.95
2023-04-01T08:44:27.425Z,10.07
2023-04-01T08:46:54.918Z,10.13
2023-04-01T08:49:22.413Z,10.14
2023-04-01T08:51:49.999Z,10.15
2023-04-01T08:54:17.735Z,10.12
2023-04-01T08:56:45.533Z,10.04
2023-04-01T08:59:13.221Z,9.98
2023-04-01T09:01:40.758Z,9.98
2023-04-01T09:04:08.468Z,9.99
2023-04-01T09:06:36.068Z,10.00
2023-04-01T09:09:03.570Z,10.00
2023-04-01T09:11:31.816Z,9.94
2023-04-01T09:13:59.335Z,9.91
2023-04-01T09:16:26.977Z,9.91
2023-04-01T09:18:54.626Z,9.96
2023-04-01T09:21:22.098Z,9.98
2023-04-01T09:23:49.735Z,10.08
2023-04-01T09:26:17.239Z,10.20
2023-04-01T09:28:44.794Z,10.22
2023-04-01T09:31:12.348Z,10.27
2023-04-01T09:33:39.989Z,10.30
2023-04-01T09:36:07.637Z,10.37
2023-04-01T09:38:35.137Z,10.48
2023-04-01T09:41:02.715Z,10.58
2023-04-01T09:43:30.331Z,10.62
2023-04-01T09:45:58.535Z,10.67
2023-04-01T09:48:26.277Z,10.69
2023-04-01T09:50:54.622Z,10.72
2023-04-01T09:53:22.313Z,10.84
2023-04-01T09:55:51.171Z,10.93
2023-04-01T09:58:18.700Z,11.00
2023-04-01T10:00:46.475Z,10.98
2023-04-01T10:03:14.020Z,10.86
2023-04-01T10:05:41.566Z,10.78
2023-04-01T10:08:09.106Z,10.84
2023-04-01T10:10:37.092Z,10.87
2023-04-01T10:13:04.618Z,10.84
2023-04-01T10:15:32.822Z,10.81
2023-04-01T10:18:00.733Z,10.74
2023-04-01T10:20:28.370Z,10.75
2023-04-01T10:22:56.373Z,10.78
2023-04-01T10:25:23.872Z,10.83
2023-04-01T10:27:51.368Z,10.86
2023-04-01T10:30:19.003Z,10.92
2023-04-01T10:32:46.958Z,10.98
2023-04-01T10:35:14.478Z,11.00
2023-04-01T10:37:42.342Z,11.05
2023-04-01T10:40:10.086Z,11.09
2023-04-01T10:42:37.659Z,11.12
2023-04-01T10:45:05.314Z,11.14
2023-04-01T10:47:32.914Z,11.14
2023-04-01T10:50:00.763Z,11.10
2023-04-01T10:52:28.325Z,11.01
2023-04-01T10:54:55.952Z,10.97
2023-04-01T10:57:23.447Z,10.97
2023-04-01T10:59:51.219Z,10.97
2023-04-01T11:02:19.205Z,11.01
2023-04-01T11:04:47.154Z,11.09
2023-04-01T11:07:14.637Z,11.23
2023-04-01T11:09:42.176Z,11.63
2023-04-01T11:12:09.712Z,11.79
2023-04-01T11:14:37.192Z,11.58
2023-04-01T11:17:04.738Z,11.26
2023-04-01T11:19:32.239Z,11.13
2023-04-01T11:21:59.736Z,11.10
2023-04-01T11:24:27.400Z,11.07
2023-04-01T11:26:54.953Z,11.07
2023-04-01T11:29:22.478Z,11.03
2023-04-01T11:31:50.189Z,11.18
2023-04-01T11:34:17.760Z,11.33
2023-04-01T11:36:45.342Z,11.36
2023-04-01T11:39:12.929Z,11.44
2023-04-01T11:41:40.489Z,11.50
2023-04-01T11:44:08.023Z,11.60
2023-04-01T11:46:35.774Z,11.67
2023-04-01T11:49:03.310Z,11.71
2023-04-01T11:51:30.939Z,11.71
2023-04-01T11:53:58.480Z,11.76
2023-04-01T11:56:26.289Z,11.79
2023-04-01T11:58:53.871Z,11.75
2023-04-01T12:01:21.567Z,11.65
2023-04-01T12:03:49.359Z,11.57
2023-04-01T12:06:17.033Z,11.60
2023-04-01T12:08:44.532Z,11.65
2023-04-01T12:11:16.640Z,11.76
2023-04-01T12:13:46.724Z,11.77
2023-04-01T12:16:14.287Z,11.72
2023-04-01T12:18:41.834Z,11.59
2023-04-01T12:21:09.378Z,11.53
2023-04-01T12:23:37.023Z,11.48
2023-04-01T12:26:04.477Z,11.47
2023-04-01T12:28:32.565Z,11.46
2023-04-01T12:31:00.103Z,11.49
2023-04-01T12:33:27.686Z,11.50
2023-04-01T12:35:55.842Z,11.54
2023-04-01T12:38:23.359Z,11.47
2023-04-01T12:40:51.037Z,11.42
2023-04-01T12:43:18.586Z,11.41
2023-04-01T12:45:46.407Z,11.45
2023-04-01T12:48:14.860Z,11.44
2023-04-01T12:50:42.535Z,11.47
2023-04-01T12:53:10.227Z,11.55
2023-04-01T12:55:37.761Z,11.63
2023-04-01T12:58:05.476Z,11.66
2023-04-01T13:00:33.039Z,11.68
2023-04-01T13:03:00.747Z,11.76
2023-04-01T13:05:28.526Z,11.80
2023-04-01T13:07:56.276Z,11.82
2023-04-01T13:10:23.761Z,11.79
2023-04-01T13:12:51.541Z,11.69
2023-04-01T13:15:19.066Z,11.63
2023-04-01T13:17:46.611Z,11.56
2023-04-01T13:20:14.170Z,11.51
2023-04-01T13:22:41.713Z,11.43
2023-04-01T13:25:09.268Z,11.42
2023-04-01T13:27:36.956Z,11.35
2023-04-01T13:30:04.551Z,11.26
2023-04-01T13:32:43.361Z,11.18
2023-04-01T13:35:11.652Z,11.16
2023-04-01T13:37:39.140Z,11.24
2023-04-01T13:40:06.705Z,11.28
2023-04-01T13:42:34.300Z,11.32
2023-04-01T13:45:01.867Z,11.31
2023-04-01T13:47:29.482Z,11.28
2023-04-01T13:49:57.072Z,11.24
2023-04-01T13:52:26.411Z,11.18
2023-04-01T13:54:53.981Z,11.19
2023-04-01T13:57:21.555Z,11.19
2023-04-01T13:59:49.242Z,11.14
2023-04-01T14:02:16.739Z,11.15
2023-04-01T14:04:47.567Z,11.19
2023-04-01T14:07:15.271Z,11.21
2023-04-01T14:09:42.783Z,11.24
2023-04-01T14:12:10.424Z,11.28
2023-04-01T14:14:37.944Z,11.30
2023-04-01T14:17:05.719Z,11.23
2023-04-01T14:19:33.231Z,11.13
2023-04-01T14:22:00.947Z,11.06
2023-04-01T14:24:28.448Z,10.95
2023-04-01T14:26:56.030Z,10.90
2023-04-01T14:29:23.516Z,10.87
2023-04-01T14:31:51.044Z,10.85
2023-04-01T14:34:18.610Z,10.83
2023-04-01T14:36:46.472Z,10.83
2023-04-01T14:39:13.945Z,10.82
2023-04-01T14:41:41.471Z,10.91
2023-04-01T14:44:08.921Z,11.01
2023-04-01T14:46:36.471Z,11.09
2023-04-01T14:49:04.034Z,11.13
2023-04-01T14:51:31.649Z,11.17
2023-04-01T14:53:59.244Z,11.23
2023-04-01T14:56:26.737Z,11.21
2023-04-01T14:58:54.246Z,11.17
2023-04-01T15:01:21.727Z,11.15
2023-04-01T15:03:49.332Z,11.11
2023-04-01T15:06:16.822Z,11.09
2023-04-01T15:08:44.470Z,11.12
2023-04-01T15:11:11.981Z,11.13
2023-04-01T15:13:39.478Z,11.08
2023-04-01T15:16:07.010Z,10.98
2023-04-01T15:18:35.195Z,10.90
2023-04-01T15:21:02.723Z,10.86
2023-04-01T15:23:30.239Z,10.82
2023-04-01T15:25:57.762Z,10.80
2023-04-01T15:28:25.437Z,10.76
2023-04-01T15:30:52.921Z,10.73
2023-04-01T15:33:20.428Z,10.77
2023-04-01T15:35:48.039Z,10.79
2023-04-01T15:38:16.398Z,10.80
2023-04-01T15:40:44.282Z,10.77
2023-04-01T15:43:11.845Z,10.67
2023-04-01T15:45:39.371Z,10.61
2023-04-01T15:48:07.055Z,10.56
2023-04-01T15:50:34.902Z,10.49
2023-04-01T15:53:02.396Z,10.44
2023-04-01T15:55:29.912Z,10.38
2023-04-01T15:57:57.387Z,10.30
2023-04-01T16:00:24.965Z,10.21
2023-04-01T16:02:52.652Z,10.15
2023-04-01T16:05:20.484Z,10.06
2023-04-01T16:07:48.121Z,10.01
2023-04-01T16:10:16.077Z,9.95
2023-04-01T16:12:43.602Z,9.83
2023-04-01T16:15:11.385Z,9.60
2023-04-01T16:17:38.967Z,9.36
2023-04-01T16:20:06.508Z,9.23
2023-04-01T16:22:34.014Z,9.24
2023-04-01T16:25:01.742Z,9.23
2023-04-01T16:27:29.327Z,9.21
2023-04-01T16:29:56.814Z,9.19
2023-04-01T16:32:24.781Z,9.16
2023-04-01T16:34:52.340Z,9.14
2023-04-01T16:37:19.844Z,9.13
2023-04-01T16:39:47.504Z,9.13
2023-04-01T16:42:15.682Z,9.14
2023-04-01T16:44:43.172Z,9.19
2023-04-01T16:47:10.885Z,9.21
2023-04-01T16:49:38.382Z,9.23
2023-04-01T16:52:06.892Z,9.24
2023-04-01T16:54:34.537Z,9.24
2023-04-01T16:57:02.118Z,9.23
2023-04-01T16:59:29.647Z,9.20
2023-04-01T17:01:57.148Z,9.19
2023-04-01T17:04:24.652Z,9.19
2023-04-01T17:06:52.199Z,9.16
2023-04-01T17:09:19.717Z,9.14
2023-04-01T17:11:47.412Z,9.15
2023-04-01T17:14:14.949Z,9.17
2023-04-01T17:16:42.504Z,9.14
2023-04-01T17:19:10.047Z,9.13
2023-04-01T17:21:37.516Z,9.13
2023-04-01T17:24:05.068Z,9.10
2023-04-01T17:26:32.528Z,9.07
2023-04-01T17:29:00.043Z,9.03
2023-04-01T17:31:27.699Z,8.99
2023-04-01T17:33:55.208Z,8.94
2023-04-01T17:36:22.891Z,8.86
2023-04-01T17:38:50.665Z,8.80
2023-04-01T17:41:18.485Z,8.71
2023-04-01T17:43:45.974Z,8.69
2023-04-01T17:46:13.497Z,8.68
2023-04-01T17:48:41.058Z,8.64
2023-04-01T17:51:08.605Z,8.59
2023-04-01T17:53:36.371Z,8.58
2023-04-01T17:56:03.876Z,8.60
2023-04-01T17:58:31.391Z,8.62
2023-04-01T18:00:59.855Z,8.55
2023-04-01T18:03:27.758Z,8.48
2023-04-01T18:05:55.432Z,8.45
2023-04-01T18:08:22.911Z,8.40
2023-04-01T18:10:50.505Z,8.38
2023-04-01T18:13:18.120Z,8.35
2023-04-01T18:15:46.191Z,8.33
2023-04-01T18:18:13.822Z,8.34
2023-04-01T18:20:41.326Z,8.33
2023-04-01T18:23:08.837Z,8.32
2023-04-01T18:25:37.874Z,8.33
2023-04-01T18:28:05.511Z,8.35
2023-04-01T18:30:33.491Z,8.35
2023-04-01T18:33:01.271Z,8.34
2023-04-01T18:35:29.489Z,8.32
2023-04-01T18:37:57.043Z,8.29
2023-04-01T18:40:26.393Z,8.27
2023-04-01T18:42:54.029Z,8.24
2023-04-01T18:45:21.611Z,8.19
2023-04-01T18:47:51.213Z,8.14
2023-04-01T18:50:18.770Z,8.06
2023-04-01T18:52:46.749Z,7.99
2023-04-01T18:55:14.446Z,7.93
2023-04-01T18:57:42.101Z,7.84
2023-04-01T19:00:09.673Z,7.75
2023-04-01T19:02:37.318Z,7.65
2023-04-01T19:05:05.071Z,7.62
2023-04-01T19:07:32.688Z,7.64
2023-04-01T19:10:00.299Z,7.61
2023-04-01T19:12:27.951Z,7.57
2023-04-01T19:14:55.833Z,7.53
2023-04-01T19:17:23.358Z,7.50
2023-04-01T19:19:51.165Z,7.48
2023-04-01T19:22:18.722Z,7.48
2023-04-01T19:24:46.307Z,7.50
2023-04-01T19:27:13.829Z,7.50
2023-04-01T19:29:41.491Z,7.49
2023-04-01T19:32:09.050Z,7.51
2023-04-01T19:34:36.586Z,7.55
2023-04-01T19:37:04.436Z,7.57
2023-04-01T19:39:32.016Z,7.61
2023-04-01T19:41:59.660Z,7.62
2023-04-01T19:44:27.302Z,7.63
2023-04-01T19:46:54.944Z,7.66
2023-04-01T19:49:22.731Z,7.68
2023-04-01T19:51:51.163Z,7.70
2023-04-01T19:54:18.709Z,7.71
2023-04-01T19:56:46.228Z,7.78
2023-04-01T19:59:13.837Z,7.82
2023-04-01T20:01:44.869Z,7.81
2023-04-01T20:04:13.634Z,7.72
2023-04-01T20:06:41.207Z,7.54
2023-04-01T20:09:08.825Z,7.38
2023-04-01T20:11:36.668Z,7.24
2023-04-01T20:14:04.194Z,7.18
2023-04-01T20:16:31.846Z,7.16
2023-04-01T20:18:59.421Z,7.14
2023-04-01T20:21:27.425Z,7.15
2023-04-01T20:23:56.404Z,7.19
2023-04-01T20:26:23.941Z,7.24
2023-04-01T20:28:51.629Z,7.28
2023-04-01T20:31:21.516Z,7.32
2023-04-01T20:33:53.049Z,7.34
2023-04-01T20:36:20.747Z,7.36
2023-04-01T20:38:48.362Z,7.41
2023-04-01T20:41:16.017Z,7.44
2023-04-01T20:43:43.699Z,7.45
2023-04-01T20:46:11.223Z,7.45
2023-04-01T20:48:38.921Z,7.46
2023-04-01T20:51:06.728Z,7.54
2023-04-01T20:53:36.429Z,7.55
2023-04-01T20:56:04.036Z,7.49
2023-04-01T20:58:31.609Z,7.43
2023-04-01T21:00:59.235Z,7.35
2023-04-01T21:03:26.889Z,7.28
2023-04-01T21:05:54.339Z,7.19
2023-04-01T21:08:21.815Z,7.11
2023-04-01T21:10:49.359Z,7.05
2023-04-01T21:13:16.849Z,7.01
2023-04-01T21:15:44.336Z,6.98
2023-04-01T21:18:12.067Z,6.97
2023-04-01T21:20:39.649Z,6.94
2023-04-01T21:23:07.141Z,6.91
2023-04-01T21:25:34.800Z,6.90
2023-04-01T21:28:02.432Z,6.94
2023-04-01T21:30:29.938Z,6.96
2023-04-01T21:32:57.498Z,6.96
2023-04-01T21:35:24.972Z,6.94
2023-04-01T21:37:52.427Z,6.93
2023-04-01T21:40:19.991Z,6.89
2023-04-01T21:42:47.459Z,6.91
2023-04-01T21:45:14.925Z,6.91
2023-04-01T21:47:42.533Z,6.92
2023-04-01T21:50:10.095Z,6.91
2023-04-01T21:52:37.572Z,6.89
2023-04-01T21:55:05.506Z,6.87
2023-04-01T21:57:33.816Z,6.86
2023-04-01T22:00:02.699Z,6.87
2023-04-01T22:02:30.348Z,6.88
2023-04-01T22:04:59.862Z,6.92
2023-04-01T22:07:27.387Z,6.93
2023-04-01T22:09:54.925Z,6.93
2023-04-01T22:12:25.210Z,6.92
2023-04-01T22:14:52.866Z,6.95
2023-04-01T22:17:20.603Z,7.00
2023-04-01T22:19:51.822Z,7.06
2023-04-01T22:22:19.362Z,7.11
2023-04-01T22:24:46.889Z,7.10
2023-04-01T22:27:14.383Z,7.11
2023-04-01T22:29:43.079Z,7.11
2023-04-01T22:32:11.360Z,7.10
2023-04-01T22:34:38.890Z,7.11
2023-04-01T22:37:06.350Z,7.14
2023-04-01T22:39:33.874Z,7.17
2023-04-01T22:42:01.732Z,7.17
2023-04-01T22:44:29.212Z,7.21
2023-04-01T22:46:58.280Z,7.22
2023-04-01T22:49:25.795Z,7.19
2023-04-01T22:51:53.308Z,7.17
2023-04-01T22:54:21.004Z,7.16
2023-04-01T22:56:48.545Z,7.17
2023-04-01T22:59:16.502Z,7.22
2023-04-01T23:01:46.599Z,7.28
2023-04-01T23:04:14.693Z,7.30
2023-04-01T23:06:42.409Z,7.26
2023-04-01T23:09:10.090Z,7.24
2023-04-01T23:11:37.820Z,7.18
2023-04-01T23:14:06.085Z,7.14
2023-04-01T23:16:33.602Z,7.12
2023-04-01T23:19:01.121Z,7.11
2023-04-01T23:21:28.752Z,7.14
2023-04-01T23:23:56.453Z,7.14
2023-04-01T23:26:24.008Z,7.11
2023-04-01T23:28:51.716Z,7.10
2023-04-01T23:31:19.248Z,7.08
2023-04-01T23:33:46.797Z,7.05
2023-04-01T23:36:14.310Z,7.02
2023-04-01T23:38:44.981Z,7.00
2023-04-01T23:41:12.472Z,6.97
2023-04-01T23:43:39.966Z,6.95
2023-04-01T23:46:08.548Z,6.94
2023-04-01T23:48:36.278Z,6.89
2023-04-01T23:51:03.821Z,6.88
2023-04-01T23:53:31.715Z,6.86
2023-04-01T23:55:59.250Z,6.86
2023-04-01T23:58:29.806Z,6.85
